الصفحة الرئيسية
METAR-TAF:

METAR-TAF

مطار :

مطار نانينغ الدولي

نانينغ, جمهورية الصين الشعبية

دائرة عرض: 22-49N, خط طول: 108-21E, ارتفاع: 73 متر

مراقبة الطقس الحالي

تاريخ ووقت الإصدار 46 دقيقة قبل الساعة 00:00UTC
ريح 4 عقدة من الجنوب, الاتجاه يتراوح بين الجنوب الشرقي و الغرب/الجنوب الغربي
درجة الحرارة 27°درجة مئوية
الرطوبة 79%
ضغط 1004 hPa
الرؤية 10 كم أو أكثر
الغيوم لا تقل 1500 م ولا وجود لمزنة ركامية السحاب الأسود

METAR: ZGNN 190000Z 18002MPS 140V250 CAVOK 27/23 Q1004 NOSIG

زمن: 08:46 (00:46 UTC)

توقعات

تاريخ ووقت الإصدار 3ساعات و 36 دقيقة قبل الساعة 21:10UTC
التوقعات صالحة من19 الساعة 00 UTC إلى 19 الساعة 24 UTC
ريح 6 عقدة من الجنوب
الرؤية: 6000 متر
غيوم متفرقة على ارتفاع 3300 قدم
مؤقت
من 19 الساعة 09 UTC إلى 19 الساعة 14 UTC
غيوم قليلة على ارتفاع 1000 قدم
غيوم متفرقة على ارتفاع 2600 قدم, مزنة ركامية.
غيوم مفككة على ارتفاع 3000 قدم
عاصفة رعدية, مطر,

TAF: ZGNN 182110Z 1900/1924 17003MPS 6000 SCT033 TX32/1907Z TN23/1922Z TEMPO 1909/1914 TSRA FEW010 SCT026CB BKN030

أرصاد الطقس والتوقعات من أكثر من 4000 مطار (تقارير الطقس للمطار METAR والتنبؤ بالطقس بالمطارTAF).

المحطات المتاحة هي النقط الصفراء والحمراء على الخريطة.

حرك المؤشر فوق النقطة لمعرفة اسم المحطة.

ثم انقر لمعرفة أرصاد وتوقعات الطقس.

لتغيير الخارطة: اضغط على الأزرار الخضراء مع رمز الصليب الأسود للتكبير. على الزر الأخضر مع شرطة للتصغير، أو على الأسهم الخضراء للخرائط المجاورة.


METAR-TAF: